sensor_id;sensor_type;location;lat;lon;timestamp;P1;durP1;ratioP1;P2;durP2;ratioP2
29236;SDS011;16266;50.866;4.398;2023-08-24T00:00:13;224.07;;;215.25;;
29236;SDS011;16266;50.866;4.398;2023-08-24T00:02:39;201.05;;;193.18;;
29236;SDS011;16266;50.866;4.398;2023-08-24T00:05:05;194.57;;;186.98;;
29236;SDS011;16266;50.866;4.398;2023-08-24T00:07:30;202.63;;;194.38;;
29236;SDS011;16266;50.866;4.398;2023-08-24T00:09:57;194.05;;;185.65;;
29236;SDS011;16266;50.866;4.398;2023-08-24T00:12:23;274.40;;;263.50;;
29236;SDS011;16266;50.866;4.398;2023-08-24T00:14:49;304.67;;;292.08;;
29236;SDS011;16266;50.866;4.398;2023-08-24T00:17:14;203.02;;;195.15;;
29236;SDS011;16266;50.866;4.398;2023-08-24T00:19:40;216.18;;;207.63;;
29236;SDS011;16266;50.866;4.398;2023-08-24T00:22:06;241.88;;;231.95;;
29236;SDS011;16266;50.866;4.398;2023-08-24T00:24:31;234.05;;;224.38;;
29236;SDS011;16266;50.866;4.398;2023-08-24T00:26:58;241.48;;;231.38;;
29236;SDS011;16266;50.866;4.398;2023-08-24T00:29:23;257.00;;;246.75;;
29236;SDS011;16266;50.866;4.398;2023-08-24T00:31:49;245.68;;;235.80;;
29236;SDS011;16266;50.866;4.398;2023-08-24T00:34:15;274.88;;;263.60;;
29236;SDS011;16266;50.866;4.398;2023-08-24T00:36:40;239.70;;;229.82;;
29236;SDS011;16266;50.866;4.398;2023-08-24T00:39:06;240.55;;;230.45;;
29236;SDS011;16266;50.866;4.398;2023-08-24T00:41:32;361.85;;;346.67;;
29236;SDS011;16266;50.866;4.398;2023-08-24T00:43:58;499.48;;;476.38;;
29236;SDS011;16266;50.866;4.398;2023-08-24T00:46:23;445.52;;;425.58;;
29236;SDS011;16266;50.866;4.398;2023-08-24T00:48:53;333.90;;;319.55;;
29236;SDS011;16266;50.866;4.398;2023-08-24T00:53:48;303.35;;;290.80;;
29236;SDS011;16266;50.866;4.398;2023-08-24T00:56:15;460.88;;;438.67;;
29236;SDS011;16266;50.866;4.398;2023-08-24T00:58:41;518.63;;;494.35;;
29236;SDS011;16266;50.866;4.398;2023-08-24T01:01:07;454.42;;;434.10;;
29236;SDS011;16266;50.866;4.398;2023-08-24T01:03:34;564.33;;;537.35;;
29236;SDS011;16266;50.866;4.398;2023-08-24T01:05:59;718.90;;;680.83;;
29236;SDS011;16266;50.866;4.398;2023-08-24T01:08:25;674.85;;;640.95;;
29236;SDS011;16266;50.866;4.398;2023-08-24T01:11:06;529.53;;;505.85;;
29236;SDS011;16266;50.866;4.398;2023-08-24T01:13:42;153.82;;;147.68;;
29236;SDS011;16266;50.866;4.398;2023-08-24T01:16:26;149.60;;;143.55;;
29236;SDS011;16266;50.866;4.398;2023-08-24T01:18:55;145.32;;;138.98;;
29236;SDS011;16266;50.866;4.398;2023-08-24T01:21:22;144.90;;;139.15;;
29236;SDS011;16266;50.866;4.398;2023-08-24T01:23:53;139.85;;;134.35;;
29236;SDS011;16266;50.866;4.398;2023-08-24T01:26:32;142.80;;;137.07;;
29236;SDS011;16266;50.866;4.398;2023-08-24T01:28:58;144.63;;;138.63;;
29236;SDS011;16266;50.866;4.398;2023-08-24T01:31:24;149.20;;;143.30;;
29236;SDS011;16266;50.866;4.398;2023-08-24T01:33:50;153.75;;;147.73;;
29236;SDS011;16266;50.866;4.398;2023-08-24T01:36:16;194.60;;;186.95;;
29236;SDS011;16266;50.866;4.398;2023-08-24T01:38:42;217.45;;;208.73;;
29236;SDS011;16266;50.866;4.398;2023-08-24T01:41:12;341.77;;;327.45;;
29236;SDS011;16266;50.866;4.398;2023-08-24T01:43:45;559.55;;;533.67;;
29236;SDS011;16266;50.866;4.398;2023-08-24T01:46:15;696.25;;;660.25;;
29236;SDS011;16266;50.866;4.398;2023-08-24T01:48:43;696.58;;;661.10;;
29236;SDS011;16266;50.866;4.398;2023-08-24T01:51:09;707.80;;;670.97;;
29236;SDS011;16266;50.866;4.398;2023-08-24T01:53:35;700.10;;;663.72;;
29236;SDS011;16266;50.866;4.398;2023-08-24T01:56:07;671.08;;;637.08;;
29236;SDS011;16266;50.866;4.398;2023-08-24T01:58:37;662.30;;;628.72;;
29236;SDS011;16266;50.866;4.398;2023-08-24T02:01:04;664.78;;;631.15;;
29236;SDS011;16266;50.866;4.398;2023-08-24T02:03:30;662.33;;;628.65;;
29236;SDS011;16266;50.866;4.398;2023-08-24T02:05:56;647.35;;;615.80;;
29236;SDS011;16266;50.866;4.398;2023-08-24T02:08:22;639.25;;;607.15;;
29236;SDS011;16266;50.866;4.398;2023-08-24T02:10:47;680.50;;;645.20;;
29236;SDS011;16266;50.866;4.398;2023-08-24T02:13:13;450.05;;;428.85;;
29236;SDS011;16266;50.866;4.398;2023-08-24T02:15:39;436.38;;;417.70;;
29236;SDS011;16266;50.866;4.398;2023-08-24T02:18:05;683.15;;;645.03;;
29236;SDS011;16266;50.866;4.398;2023-08-24T02:20:38;647.83;;;609.80;;
29236;SDS011;16266;50.866;4.398;2023-08-24T02:23:04;726.80;;;682.03;;
29236;SDS011;16266;50.866;4.398;2023-08-24T02:25:31;639.33;;;605.63;;
29236;SDS011;16266;50.866;4.398;2023-08-24T02:27:59;466.63;;;445.45;;
29236;SDS011;16266;50.866;4.398;2023-08-24T02:30:24;578.10;;;548.72;;
29236;SDS011;16266;50.866;4.398;2023-08-24T02:32:51;627.72;;;596.45;;
29236;SDS011;16266;50.866;4.398;2023-08-24T02:35:16;698.55;;;658.95;;
29236;SDS011;16266;50.866;4.398;2023-08-24T02:37:43;668.13;;;631.67;;
29236;SDS011;16266;50.866;4.398;2023-08-24T02:40:09;652.95;;;617.45;;
29236;SDS011;16266;50.866;4.398;2023-08-24T02:42:34;655.78;;;620.53;;
29236;SDS011;16266;50.866;4.398;2023-08-24T02:45:00;629.00;;;595.88;;
29236;SDS011;16266;50.866;4.398;2023-08-24T02:47:26;639.17;;;605.45;;
29236;SDS011;16266;50.866;4.398;2023-08-24T02:49:52;497.55;;;473.83;;
29236;SDS011;16266;50.866;4.398;2023-08-24T02:52:18;505.73;;;481.10;;
29236;SDS011;16266;50.866;4.398;2023-08-24T02:54:43;502.33;;;478.38;;
29236;SDS011;16266;50.866;4.398;2023-08-24T02:57:09;520.17;;;495.25;;
29236;SDS011;16266;50.866;4.398;2023-08-24T02:59:35;540.63;;;514.17;;
29236;SDS011;16266;50.866;4.398;2023-08-24T03:02:01;555.83;;;528.22;;
29236;SDS011;16266;50.866;4.398;2023-08-24T03:04:27;563.25;;;534.92;;
29236;SDS011;16266;50.866;4.398;2023-08-24T03:06:52;578.15;;;548.72;;
29236;SDS011;16266;50.866;4.398;2023-08-24T03:09:18;577.13;;;547.45;;
29236;SDS011;16266;50.866;4.398;2023-08-24T03:11:44;579.35;;;549.45;;
29236;SDS011;16266;50.866;4.398;2023-08-24T03:14:09;566.75;;;537.13;;
29236;SDS011;16266;50.866;4.398;2023-08-24T03:16:36;545.10;;;517.90;;
29236;SDS011;16266;50.866;4.398;2023-08-24T03:19:03;505.27;;;480.90;;
29236;SDS011;16266;50.866;4.398;2023-08-24T03:21:29;478.10;;;455.65;;
29236;SDS011;16266;50.866;4.398;2023-08-24T03:23:55;449.35;;;428.73;;
29236;SDS011;16266;50.866;4.398;2023-08-24T03:26:21;455.98;;;434.60;;
29236;SDS011;16266;50.866;4.398;2023-08-24T03:28:48;465.35;;;443.67;;
29236;SDS011;16266;50.866;4.398;2023-08-24T03:31:14;487.45;;;464.45;;
29236;SDS011;16266;50.866;4.398;2023-08-24T03:33:40;490.50;;;466.35;;
29236;SDS011;16266;50.866;4.398;2023-08-24T03:36:05;525.13;;;499.13;;
29236;SDS011;16266;50.866;4.398;2023-08-24T03:38:31;518.67;;;493.42;;
29236;SDS011;16266;50.866;4.398;2023-08-24T03:41:01;520.05;;;494.80;;
29236;SDS011;16266;50.866;4.398;2023-08-24T03:45:56;484.90;;;461.13;;
29236;SDS011;16266;50.866;4.398;2023-08-24T03:48:21;486.13;;;463.25;;
29236;SDS011;16266;50.866;4.398;2023-08-24T03:50:47;506.88;;;482.83;;
29236;SDS011;16266;50.866;4.398;2023-08-24T03:53:13;489.63;;;466.60;;
29236;SDS011;16266;50.866;4.398;2023-08-24T03:55:38;502.23;;;478.58;;
29236;SDS011;16266;50.866;4.398;2023-08-24T03:58:04;508.05;;;484.40;;
29236;SDS011;16266;50.866;4.398;2023-08-24T04:00:30;521.22;;;496.25;;
29236;SDS011;16266;50.866;4.398;2023-08-24T04:02:56;530.17;;;504.80;;
29236;SDS011;16266;50.866;4.398;2023-08-24T04:05:21;541.22;;;515.47;;
29236;SDS011;16266;50.866;4.398;2023-08-24T04:07:47;554.83;;;528.10;;
29236;SDS011;16266;50.866;4.398;2023-08-24T04:10:13;577.58;;;549.08;;
29236;SDS011;16266;50.866;4.398;2023-08-24T04:12:38;586.88;;;558.28;;
29236;SDS011;16266;50.866;4.398;2023-08-24T04:15:04;613.92;;;583.58;;
29236;SDS011;16266;50.866;4.398;2023-08-24T04:17:30;608.97;;;579.22;;
29236;SDS011;16266;50.866;4.398;2023-08-24T04:19:56;589.83;;;560.97;;
29236;SDS011;16266;50.866;4.398;2023-08-24T04:22:22;589.63;;;559.70;;
29236;SDS011;16266;50.866;4.398;2023-08-24T04:24:47;625.53;;;593.88;;
29236;SDS011;16266;50.866;4.398;2023-08-24T04:27:14;573.20;;;544.92;;
29236;SDS011;16266;50.866;4.398;2023-08-24T04:29:39;532.63;;;506.80;;
29236;SDS011;16266;50.866;4.398;2023-08-24T04:32:05;560.17;;;533.40;;
29236;SDS011;16266;50.866;4.398;2023-08-24T04:34:31;529.15;;;503.92;;
29236;SDS011;16266;50.866;4.398;2023-08-24T04:36:57;608.22;;;577.60;;
29236;SDS011;16266;50.866;4.398;2023-08-24T04:39:22;548.17;;;521.90;;
29236;SDS011;16266;50.866;4.398;2023-08-24T04:41:49;550.00;;;523.63;;
29236;SDS011;16266;50.866;4.398;2023-08-24T04:44:15;524.03;;;498.85;;
29236;SDS011;16266;50.866;4.398;2023-08-24T04:46:41;527.15;;;501.55;;
29236;SDS011;16266;50.866;4.398;2023-08-24T04:49:06;507.88;;;484.45;;
29236;SDS011;16266;50.866;4.398;2023-08-24T04:51:32;490.52;;;467.55;;
29236;SDS011;16266;50.866;4.398;2023-08-24T04:53:58;457.08;;;436.45;;
29236;SDS011;16266;50.866;4.398;2023-08-24T04:56:23;761.92;;;717.05;;
29236;SDS011;16266;50.866;4.398;2023-08-24T04:58:53;441.02;;;421.15;;
29236;SDS011;16266;50.866;4.398;2023-08-24T05:01:25;466.23;;;444.73;;
29236;SDS011;16266;50.866;4.398;2023-08-24T05:03:51;489.35;;;467.17;;
29236;SDS011;16266;50.866;4.398;2023-08-24T05:06:17;398.30;;;380.63;;
29236;SDS011;16266;50.866;4.398;2023-08-24T05:08:43;390.45;;;373.45;;
29236;SDS011;16266;50.866;4.398;2023-08-24T05:11:12;378.67;;;362.80;;
29236;SDS011;16266;50.866;4.398;2023-08-24T05:13:39;353.77;;;338.95;;
29236;SDS011;16266;50.866;4.398;2023-08-24T05:16:05;360.08;;;344.45;;
29236;SDS011;16266;50.866;4.398;2023-08-24T05:18:31;393.98;;;376.35;;
29236;SDS011;16266;50.866;4.398;2023-08-24T05:20:59;402.35;;;384.42;;
29236;SDS011;16266;50.866;4.398;2023-08-24T05:23:24;403.38;;;385.67;;
29236;SDS011;16266;50.866;4.398;2023-08-24T05:25:50;376.08;;;359.67;;
29236;SDS011;16266;50.866;4.398;2023-08-24T05:28:16;323.00;;;309.48;;
29236;SDS011;16266;50.866;4.398;2023-08-24T05:30:41;195.02;;;186.85;;
29236;SDS011;16266;50.866;4.398;2023-08-24T05:33:07;201.32;;;192.98;;
29236;SDS011;16266;50.866;4.398;2023-08-24T05:35:33;301.25;;;288.55;;
29236;SDS011;16266;50.866;4.398;2023-08-24T05:37:58;452.50;;;432.45;;
29236;SDS011;16266;50.866;4.398;2023-08-24T05:40:24;584.80;;;555.97;;
29236;SDS011;16266;50.866;4.398;2023-08-24T05:42:49;390.80;;;374.40;;
29236;SDS011;16266;50.866;4.398;2023-08-24T05:45:15;302.33;;;290.13;;
29236;SDS011;16266;50.866;4.398;2023-08-24T05:47:41;382.85;;;365.52;;
29236;SDS011;16266;50.866;4.398;2023-08-24T05:50:07;511.25;;;487.13;;
29236;SDS011;16266;50.866;4.398;2023-08-24T05:52:32;509.73;;;486.75;;
29236;SDS011;16266;50.866;4.398;2023-08-24T05:54:58;270.98;;;259.55;;
29236;SDS011;16266;50.866;4.398;2023-08-24T05:57:24;209.25;;;201.00;;
29236;SDS011;16266;50.866;4.398;2023-08-24T05:59:49;305.10;;;292.75;;
29236;SDS011;16266;50.866;4.398;2023-08-24T06:02:15;279.15;;;267.92;;
29236;SDS011;16266;50.866;4.398;2023-08-24T06:04:41;117.18;;;112.35;;
29236;SDS011;16266;50.866;4.398;2023-08-24T06:07:06;98.15;;;94.40;;
29236;SDS011;16266;50.866;4.398;2023-08-24T06:09:32;158.50;;;152.13;;
29236;SDS011;16266;50.866;4.398;2023-08-24T06:11:57;169.75;;;162.55;;
29236;SDS011;16266;50.866;4.398;2023-08-24T06:14:23;124.70;;;119.90;;
29236;SDS011;16266;50.866;4.398;2023-08-24T06:16:49;178.35;;;171.32;;
29236;SDS011;16266;50.866;4.398;2023-08-24T06:19:15;161.50;;;155.35;;
29236;SDS011;16266;50.866;4.398;2023-08-24T06:21:40;56.50;;;54.15;;
29236;SDS011;16266;50.866;4.398;2023-08-24T06:24:06;92.45;;;88.80;;
29236;SDS011;16266;50.866;4.398;2023-08-24T06:26:32;263.25;;;252.38;;
29236;SDS011;16266;50.866;4.398;2023-08-24T06:28:57;163.38;;;156.80;;
29236;SDS011;16266;50.866;4.398;2023-08-24T06:31:23;82.80;;;79.60;;
29236;SDS011;16266;50.866;4.398;2023-08-24T06:33:49;83.82;;;80.45;;
29236;SDS011;16266;50.866;4.398;2023-08-24T06:36:15;29.20;;;27.80;;
29236;SDS011;16266;50.866;4.398;2023-08-24T06:38:40;61.45;;;58.92;;
29236;SDS011;16266;50.866;4.398;2023-08-24T06:41:06;24.95;;;23.85;;
29236;SDS011;16266;50.866;4.398;2023-08-24T06:43:37;24.33;;;23.33;;
29236;SDS011;16266;50.866;4.398;2023-08-24T06:46:04;25.85;;;24.67;;
29236;SDS011;16266;50.866;4.398;2023-08-24T06:48:36;35.97;;;34.58;;
29236;SDS011;16266;50.866;4.398;2023-08-24T06:51:07;33.58;;;32.35;;
29236;SDS011;16266;50.866;4.398;2023-08-24T06:53:34;29.33;;;27.88;;
29236;SDS011;16266;50.866;4.398;2023-08-24T06:56:00;21.80;;;20.90;;
29236;SDS011;16266;50.866;4.398;2023-08-24T06:58:26;23.92;;;23.02;;
29236;SDS011;16266;50.866;4.398;2023-08-24T07:00:51;22.52;;;21.63;;
29236;SDS011;16266;50.866;4.398;2023-08-24T07:03:17;21.17;;;20.08;;
29236;SDS011;16266;50.866;4.398;2023-08-24T07:05:43;27.55;;;26.27;;
29236;SDS011;16266;50.866;4.398;2023-08-24T07:08:10;26.63;;;25.48;;
29236;SDS011;16266;50.866;4.398;2023-08-24T07:10:36;23.85;;;22.85;;
29236;SDS011;16266;50.866;4.398;2023-08-24T07:13:02;22.48;;;21.63;;
29236;SDS011;16266;50.866;4.398;2023-08-24T07:15:27;22.55;;;21.27;;
29236;SDS011;16266;50.866;4.398;2023-08-24T07:17:53;21.17;;;20.35;;
29236;SDS011;16266;50.866;4.398;2023-08-24T07:20:19;18.08;;;17.17;;
29236;SDS011;16266;50.866;4.398;2023-08-24T07:22:45;21.10;;;20.00;;
29236;SDS011;16266;50.866;4.398;2023-08-24T07:25:10;21.15;;;20.25;;
29236;SDS011;16266;50.866;4.398;2023-08-24T07:27:37;23.63;;;22.15;;
29236;SDS011;16266;50.866;4.398;2023-08-24T07:30:03;20.73;;;19.73;;
29236;SDS011;16266;50.866;4.398;2023-08-24T07:32:31;22.33;;;20.88;;
29236;SDS011;16266;50.866;4.398;2023-08-24T07:34:57;20.20;;;19.38;;
29236;SDS011;16266;50.866;4.398;2023-08-24T07:37:24;22.95;;;21.77;;
29236;SDS011;16266;50.866;4.398;2023-08-24T07:39:50;38.10;;;36.50;;
29236;SDS011;16266;50.866;4.398;2023-08-24T07:42:19;27.67;;;25.98;;
29236;SDS011;16266;50.866;4.398;2023-08-24T07:44:45;30.08;;;28.63;;
29236;SDS011;16266;50.866;4.398;2023-08-24T07:47:11;25.55;;;24.33;;
29236;SDS011;16266;50.866;4.398;2023-08-24T07:49:36;33.85;;;31.67;;
29236;SDS011;16266;50.866;4.398;2023-08-24T07:52:08;29.10;;;27.92;;
29236;SDS011;16266;50.866;4.398;2023-08-24T07:54:34;42.22;;;40.53;;
29236;SDS011;16266;50.866;4.398;2023-08-24T07:57:00;41.60;;;39.28;;
29236;SDS011;16266;50.866;4.398;2023-08-24T07:59:26;33.20;;;31.60;;
29236;SDS011;16266;50.866;4.398;2023-08-24T08:01:52;32.15;;;30.65;;
29236;SDS011;16266;50.866;4.398;2023-08-24T08:04:17;28.00;;;26.85;;
29236;SDS011;16266;50.866;4.398;2023-08-24T08:06:43;29.52;;;28.17;;
29236;SDS011;16266;50.866;4.398;2023-08-24T08:09:08;31.50;;;30.10;;
29236;SDS011;16266;50.866;4.398;2023-08-24T08:11:34;30.58;;;29.27;;
29236;SDS011;16266;50.866;4.398;2023-08-24T08:14:00;58.38;;;54.85;;
29236;SDS011;16266;50.866;4.398;2023-08-24T08:16:25;57.70;;;55.22;;
29236;SDS011;16266;50.866;4.398;2023-08-24T08:18:51;88.65;;;84.90;;
29236;SDS011;16266;50.866;4.398;2023-08-24T08:21:18;64.05;;;61.13;;
29236;SDS011;16266;50.866;4.398;2023-08-24T08:23:44;83.28;;;79.78;;
29236;SDS011;16266;50.866;4.398;2023-08-24T08:26:10;42.33;;;40.33;;
29236;SDS011;16266;50.866;4.398;2023-08-24T08:28:38;31.90;;;30.13;;
29236;SDS011;16266;50.866;4.398;2023-08-24T08:31:04;29.77;;;28.35;;
29236;SDS011;16266;50.866;4.398;2023-08-24T08:33:31;32.05;;;30.52;;
29236;SDS011;16266;50.866;4.398;2023-08-24T08:35:56;32.97;;;31.58;;
29236;SDS011;16266;50.866;4.398;2023-08-24T08:38:22;30.48;;;29.23;;
29236;SDS011;16266;50.866;4.398;2023-08-24T08:40:51;30.10;;;28.55;;
29236;SDS011;16266;50.866;4.398;2023-08-24T08:43:22;32.90;;;30.15;;
29236;SDS011;16266;50.866;4.398;2023-08-24T08:45:51;37.13;;;35.50;;
29236;SDS011;16266;50.866;4.398;2023-08-24T08:48:18;34.03;;;32.47;;
29236;SDS011;16266;50.866;4.398;2023-08-24T08:50:45;35.55;;;34.03;;
29236;SDS011;16266;50.866;4.398;2023-08-24T08:53:14;32.60;;;29.45;;
29236;SDS011;16266;50.866;4.398;2023-08-24T08:55:40;35.88;;;34.33;;
29236;SDS011;16266;50.866;4.398;2023-08-24T08:58:06;42.75;;;40.85;;
29236;SDS011;16266;50.866;4.398;2023-08-24T09:00:33;34.17;;;32.53;;
29236;SDS011;16266;50.866;4.398;2023-08-24T09:03:00;31.63;;;30.13;;
29236;SDS011;16266;50.866;4.398;2023-08-24T09:05:28;32.85;;;31.48;;
29236;SDS011;16266;50.866;4.398;2023-08-24T09:07:54;50.95;;;48.78;;
29236;SDS011;16266;50.866;4.398;2023-08-24T09:10:23;47.22;;;45.13;;
29236;SDS011;16266;50.866;4.398;2023-08-24T09:12:48;34.47;;;33.08;;
29236;SDS011;16266;50.866;4.398;2023-08-24T09:15:14;36.97;;;35.17;;
29236;SDS011;16266;50.866;4.398;2023-08-24T09:17:50;38.13;;;36.40;;
29236;SDS011;16266;50.866;4.398;2023-08-24T09:20:15;34.60;;;33.20;;
29236;SDS011;16266;50.866;4.398;2023-08-24T09:22:41;33.58;;;31.88;;
29236;SDS011;16266;50.866;4.398;2023-08-24T09:25:09;41.58;;;39.88;;
29236;SDS011;16266;50.866;4.398;2023-08-24T09:27:35;50.00;;;47.67;;
29236;SDS011;16266;50.866;4.398;2023-08-24T09:30:01;50.35;;;48.38;;
29236;SDS011;16266;50.866;4.398;2023-08-24T09:32:28;50.55;;;48.38;;
29236;SDS011;16266;50.866;4.398;2023-08-24T09:34:55;69.55;;;66.25;;
29236;SDS011;16266;50.866;4.398;2023-08-24T09:37:20;231.10;;;220.75;;
29236;SDS011;16266;50.866;4.398;2023-08-24T09:39:46;375.65;;;357.75;;
29236;SDS011;16266;50.866;4.398;2023-08-24T09:42:13;453.90;;;431.33;;
29236;SDS011;16266;50.866;4.398;2023-08-24T09:44:48;592.75;;;562.65;;
29236;SDS011;16266;50.866;4.398;2023-08-24T09:47:13;438.40;;;417.60;;
29236;SDS011;16266;50.866;4.398;2023-08-24T09:49:39;569.20;;;539.63;;
29236;SDS011;16266;50.866;4.398;2023-08-24T09:52:06;585.15;;;555.25;;
29236;SDS011;16266;50.866;4.398;2023-08-24T09:54:33;495.17;;;471.15;;
29236;SDS011;16266;50.866;4.398;2023-08-24T09:57:02;412.20;;;393.58;;
29236;SDS011;16266;50.866;4.398;2023-08-24T09:59:29;328.83;;;314.08;;
29236;SDS011;16266;50.866;4.398;2023-08-24T10:01:57;396.88;;;378.73;;
29236;SDS011;16266;50.866;4.398;2023-08-24T10:04:32;482.13;;;458.98;;
29236;SDS011;16266;50.866;4.398;2023-08-24T10:07:11;575.88;;;546.90;;
29236;SDS011;16266;50.866;4.398;2023-08-24T10:12:24;505.38;;;481.95;;
29236;SDS011;16266;50.866;4.398;2023-08-24T10:14:56;727.58;;;682.95;;
29236;SDS011;16266;50.866;4.398;2023-08-24T10:17:29;517.75;;;492.70;;
29236;SDS011;16266;50.866;4.398;2023-08-24T10:19:57;483.25;;;460.00;;
29236;SDS011;16266;50.866;4.398;2023-08-24T10:22:26;494.02;;;470.05;;
29236;SDS011;16266;50.866;4.398;2023-08-24T10:24:53;466.80;;;444.90;;
29236;SDS011;16266;50.866;4.398;2023-08-24T10:27:21;442.90;;;421.88;;
29236;SDS011;16266;50.866;4.398;2023-08-24T10:29:49;406.33;;;387.15;;
29236;SDS011;16266;50.866;4.398;2023-08-24T10:32:14;402.50;;;384.17;;
29236;SDS011;16266;50.866;4.398;2023-08-24T10:34:41;405.33;;;386.98;;
29236;SDS011;16266;50.866;4.398;2023-08-24T10:37:10;417.35;;;398.35;;
29236;SDS011;16266;50.866;4.398;2023-08-24T10:39:37;448.55;;;427.83;;
29236;SDS011;16266;50.866;4.398;2023-08-24T10:42:10;445.50;;;425.30;;
29236;SDS011;16266;50.866;4.398;2023-08-24T10:44:39;461.25;;;440.10;;
29236;SDS011;16266;50.866;4.398;2023-08-24T10:49:41;516.45;;;491.23;;
29236;SDS011;16266;50.866;4.398;2023-08-24T10:52:17;564.08;;;535.83;;
29236;SDS011;16266;50.866;4.398;2023-08-24T10:54:45;596.17;;;563.80;;
29236;SDS011;16266;50.866;4.398;2023-08-24T11:00:04;795.92;;;749.10;;
29236;SDS011;16266;50.866;4.398;2023-08-24T11:02:47;769.70;;;726.60;;
29236;SDS011;16266;50.866;4.398;2023-08-24T11:07:56;500.17;;;475.23;;
29236;SDS011;16266;50.866;4.398;2023-08-24T11:10:46;578.07;;;548.63;;
29236;SDS011;16266;50.866;4.398;2023-08-24T11:13:12;572.08;;;543.10;;
29236;SDS011;16266;50.866;4.398;2023-08-24T11:15:44;591.80;;;561.20;;
29236;SDS011;16266;50.866;4.398;2023-08-24T11:18:12;632.40;;;596.85;;
29236;SDS011;16266;50.866;4.398;2023-08-24T11:20:39;672.22;;;634.53;;
29236;SDS011;16266;50.866;4.398;2023-08-24T11:23:16;627.50;;;594.95;;
29236;SDS011;16266;50.866;4.398;2023-08-24T11:25:43;578.50;;;550.75;;
29236;SDS011;16266;50.866;4.398;2023-08-24T11:28:09;494.67;;;472.63;;
29236;SDS011;16266;50.866;4.398;2023-08-24T11:30:35;380.83;;;364.90;;
29236;SDS011;16266;50.866;4.398;2023-08-24T11:33:01;299.55;;;286.88;;
29236;SDS011;16266;50.866;4.398;2023-08-24T11:35:29;321.38;;;307.75;;
29236;SDS011;16266;50.866;4.398;2023-08-24T11:37:59;315.30;;;302.20;;
29236;SDS011;16266;50.866;4.398;2023-08-24T11:40:25;478.48;;;456.85;;
29236;SDS011;16266;50.866;4.398;2023-08-24T11:42:56;551.67;;;525.90;;
29236;SDS011;16266;50.866;4.398;2023-08-24T11:45:23;507.13;;;483.87;;
29236;SDS011;16266;50.866;4.398;2023-08-24T11:47:49;580.70;;;552.17;;
29236;SDS011;16266;50.866;4.398;2023-08-24T11:50:16;536.42;;;510.98;;
29236;SDS011;16266;50.866;4.398;2023-08-24T11:52:42;655.25;;;620.40;;
29236;SDS011;16266;50.866;4.398;2023-08-24T11:55:09;674.85;;;638.60;;
29236;SDS011;16266;50.866;4.398;2023-08-24T11:57:36;687.92;;;650.05;;
29236;SDS011;16266;50.866;4.398;2023-08-24T12:00:02;774.53;;;728.25;;
29236;SDS011;16266;50.866;4.398;2023-08-24T12:02:29;778.53;;;732.55;;
29236;SDS011;16266;50.866;4.398;2023-08-24T12:04:55;658.13;;;624.13;;
29236;SDS011;16266;50.866;4.398;2023-08-24T12:07:22;640.78;;;607.95;;
29236;SDS011;16266;50.866;4.398;2023-08-24T12:09:48;626.38;;;594.70;;
29236;SDS011;16266;50.866;4.398;2023-08-24T12:12:17;680.53;;;643.83;;
29236;SDS011;16266;50.866;4.398;2023-08-24T12:14:45;776.28;;;730.88;;
29236;SDS011;16266;50.866;4.398;2023-08-24T12:17:13;816.90;;;766.90;;
29236;SDS011;16266;50.866;4.398;2023-08-24T12:19:43;812.80;;;762.58;;
29236;SDS011;16266;50.866;4.398;2023-08-24T12:22:15;749.55;;;705.83;;
29236;SDS011;16266;50.866;4.398;2023-08-24T12:24:45;606.90;;;575.72;;
29236;SDS011;16266;50.866;4.398;2023-08-24T12:27:22;463.00;;;441.15;;
29236;SDS011;16266;50.866;4.398;2023-08-24T12:29:48;349.17;;;333.95;;
29236;SDS011;16266;50.866;4.398;2023-08-24T12:32:14;343.17;;;328.42;;
29236;SDS011;16266;50.866;4.398;2023-08-24T12:34:41;430.13;;;411.25;;
29236;SDS011;16266;50.866;4.398;2023-08-24T12:37:08;415.27;;;397.00;;
29236;SDS011;16266;50.866;4.398;2023-08-24T12:39:38;454.70;;;434.38;;
29236;SDS011;16266;50.866;4.398;2023-08-24T12:42:04;471.10;;;449.98;;
29236;SDS011;16266;50.866;4.398;2023-08-24T12:44:31;476.63;;;454.98;;
29236;SDS011;16266;50.866;4.398;2023-08-24T12:46:58;478.27;;;455.65;;
29236;SDS011;16266;50.866;4.398;2023-08-24T12:49:25;490.75;;;466.98;;
29236;SDS011;16266;50.866;4.398;2023-08-24T12:51:50;498.45;;;474.23;;
29236;SDS011;16266;50.866;4.398;2023-08-24T12:54:16;512.42;;;486.67;;
29236;SDS011;16266;50.866;4.398;2023-08-24T12:56:42;523.17;;;496.85;;
29236;SDS011;16266;50.866;4.398;2023-08-24T12:59:07;499.52;;;473.90;;
29236;SDS011;16266;50.866;4.398;2023-08-24T13:01:33;516.00;;;489.90;;
29236;SDS011;16266;50.866;4.398;2023-08-24T13:03:59;517.20;;;488.98;;
29236;SDS011;16266;50.866;4.398;2023-08-24T13:06:25;505.17;;;479.35;;
29236;SDS011;16266;50.866;4.398;2023-08-24T13:08:52;489.58;;;465.00;;
29236;SDS011;16266;50.866;4.398;2023-08-24T13:11:18;509.98;;;483.38;;
29236;SDS011;16266;50.866;4.398;2023-08-24T13:13:44;503.45;;;476.80;;
29236;SDS011;16266;50.866;4.398;2023-08-24T13:16:13;469.83;;;446.30;;
29236;SDS011;16266;50.866;4.398;2023-08-24T13:18:39;464.75;;;441.42;;
29236;SDS011;16266;50.866;4.398;2023-08-24T13:21:05;524.70;;;496.42;;
29236;SDS011;16266;50.866;4.398;2023-08-24T13:23:31;479.00;;;454.27;;
29236;SDS011;16266;50.866;4.398;2023-08-24T13:25:58;521.47;;;492.10;;
29236;SDS011;16266;50.866;4.398;2023-08-24T13:28:24;492.85;;;466.83;;
29236;SDS011;16266;50.866;4.398;2023-08-24T13:30:50;475.60;;;449.83;;
29236;SDS011;16266;50.866;4.398;2023-08-24T13:33:15;496.17;;;469.02;;
29236;SDS011;16266;50.866;4.398;2023-08-24T13:35:42;486.48;;;459.80;;
29236;SDS011;16266;50.866;4.398;2023-08-24T13:38:09;475.95;;;449.92;;
29236;SDS011;16266;50.866;4.398;2023-08-24T13:40:34;547.10;;;515.30;;
29236;SDS011;16266;50.866;4.398;2023-08-24T13:43:00;525.50;;;496.00;;
29236;SDS011;16266;50.866;4.398;2023-08-24T13:45:26;568.45;;;534.13;;
29236;SDS011;16266;50.866;4.398;2023-08-24T13:47:52;607.95;;;571.35;;
29236;SDS011;16266;50.866;4.398;2023-08-24T13:50:17;593.25;;;557.90;;
29236;SDS011;16266;50.866;4.398;2023-08-24T13:52:43;655.85;;;613.92;;
29236;SDS011;16266;50.866;4.398;2023-08-24T13:55:09;639.90;;;599.85;;
29236;SDS011;16266;50.866;4.398;2023-08-24T13:57:35;625.75;;;586.45;;
29236;SDS011;16266;50.866;4.398;2023-08-24T14:00:01;649.78;;;609.00;;
29236;SDS011;16266;50.866;4.398;2023-08-24T14:02:30;645.33;;;604.20;;
29236;SDS011;16266;50.866;4.398;2023-08-24T14:04:55;696.65;;;652.05;;
29236;SDS011;16266;50.866;4.398;2023-08-24T14:07:21;694.65;;;649.90;;
29236;SDS011;16266;50.866;4.398;2023-08-24T14:09:47;733.75;;;683.28;;
29236;SDS011;16266;50.866;4.398;2023-08-24T14:12:12;708.25;;;660.70;;
29236;SDS011;16266;50.866;4.398;2023-08-24T14:14:38;722.05;;;672.53;;